createdAt,value
2022-10-09T00:01:16.631Z,102155.75
2022-10-09T00:03:46.821Z,102158.13
2022-10-09T00:06:17.803Z,102162.56
2022-10-09T00:08:46.030Z,102170.25
2022-10-09T00:11:16.776Z,102171.91
2022-10-09T00:13:45.487Z,102175.75
2022-10-09T00:16:16.191Z,102183.97
2022-10-09T00:18:44.396Z,102187.78
2022-10-09T00:21:23.752Z,102188.31
2022-10-09T00:23:53.459Z,102185.56
2022-10-09T00:26:21.608Z,102189.09
2022-10-09T00:28:49.573Z,102188.81
2022-10-09T00:31:19.575Z,102191.47
2022-10-09T00:33:47.478Z,102201.38
2022-10-09T00:36:17.186Z,102204.25
2022-10-09T00:38:45.413Z,102208.75
2022-10-09T00:41:15.960Z,102210.72
2022-10-09T00:43:47.613Z,102206.91
2022-10-09T00:46:28.871Z,102211.09
2022-10-09T00:49:04.464Z,102213.56
2022-10-09T00:51:35.259Z,102215.66
2022-10-09T00:54:06.095Z,102219.22
2022-10-09T00:56:35.113Z,102230.97
2022-10-09T00:59:04.373Z,102225.22
2022-10-09T01:01:33.822Z,102229.16
2022-10-09T01:04:01.723Z,102222.75
2022-10-09T01:06:41.735Z,102229.59
2022-10-09T01:09:15.136Z,102239.16
2022-10-09T01:11:50.060Z,102231.66
2022-10-09T01:14:25.604Z,102236.50
2022-10-09T01:17:02.520Z,102237.03
2022-10-09T01:19:57.766Z,102242.16
2022-10-09T01:22:40.290Z,102236.69
2022-10-09T01:25:10.284Z,102237.34
2022-10-09T01:27:41.961Z,102234.34
2022-10-09T01:30:12.627Z,102245.91
2022-10-09T01:32:44.707Z,102241.00
2022-10-09T01:35:13.709Z,102245.50
2022-10-09T01:37:43.406Z,102249.81
2022-10-09T01:40:13.473Z,102249.31
2022-10-09T01:42:43.080Z,102251.38
2022-10-09T01:45:11.603Z,102248.25
2022-10-09T01:47:39.548Z,102252.84
2022-10-09T01:50:16.647Z,102266.38
2022-10-09T01:52:48.932Z,102256.53
2022-10-09T01:55:32.567Z,102256.03
2022-10-09T01:58:08.362Z,102255.28
2022-10-09T02:00:40.647Z,102259.25
2022-10-09T02:03:12.204Z,102264.31
2022-10-09T02:05:43.239Z,102262.69
2022-10-09T02:08:15.777Z,102266.75
2022-10-09T02:10:46.464Z,102265.25
2022-10-09T02:13:15.733Z,102254.03
2022-10-09T02:15:48.748Z,102258.03
2022-10-09T02:18:24.263Z,102261.03
2022-10-09T02:20:56.525Z,102263.22
2022-10-09T02:23:25.792Z,102270.53
2022-10-09T02:25:54.707Z,102262.31
2022-10-09T02:28:24.258Z,102268.81
2022-10-09T02:30:58.788Z,102276.06
2022-10-09T02:33:33.288Z,102279.78
2022-10-09T02:36:02.109Z,102284.59
2022-10-09T02:38:30.034Z,102276.66
2022-10-09T02:41:01.083Z,102282.56
2022-10-09T02:43:30.627Z,102285.72
2022-10-09T02:45:58.507Z,102275.81
2022-10-09T02:48:26.443Z,102273.47
2022-10-09T02:50:54.277Z,102277.06
2022-10-09T02:53:22.118Z,102281.91
2022-10-09T02:55:50.022Z,102280.03
2022-10-09T02:58:17.849Z,102282.56
2022-10-09T03:00:50.774Z,102281.56
2022-10-09T03:03:19.163Z,102280.22
2022-10-09T03:05:47.262Z,102283.13
2022-10-09T03:08:15.684Z,102283.72
2022-10-09T03:10:43.487Z,102288.69
2022-10-09T03:13:11.337Z,102279.44
2022-10-09T03:15:39.531Z,102279.97
2022-10-09T03:18:08.699Z,102288.56
2022-10-09T03:20:36.530Z,102287.47
2022-10-09T03:23:04.441Z,102293.13
2022-10-09T03:25:32.295Z,102281.97
2022-10-09T03:28:00.147Z,102284.78
2022-10-09T03:30:27.978Z,102287.91
2022-10-09T03:32:55.834Z,102292.53
2022-10-09T03:35:25.045Z,102290.81
2022-10-09T03:37:52.876Z,102283.50
2022-10-09T03:40:20.704Z,102289.94
2022-10-09T03:42:48.732Z,102296.53
2022-10-09T03:45:16.816Z,102296.69
2022-10-09T03:47:44.651Z,102303.84
2022-10-09T03:50:12.533Z,102305.91
2022-10-09T03:52:41.784Z,102303.91
2022-10-09T03:55:10.309Z,102313.00
2022-10-09T03:57:38.489Z,102314.59
2022-10-09T04:00:07.567Z,102305.91
2022-10-09T04:02:36.022Z,102312.41
2022-10-09T04:05:04.043Z,102315.59
2022-10-09T04:07:31.887Z,102323.47
2022-10-09T04:10:01.096Z,102324.41
2022-10-09T04:12:28.943Z,102320.88
2022-10-09T04:14:56.779Z,102322.63
2022-10-09T04:17:24.602Z,102318.50
2022-10-09T04:19:52.450Z,102321.03
2022-10-09T04:22:20.351Z,102323.25
2022-10-09T04:24:48.183Z,102330.19
2022-10-09T04:27:17.551Z,102336.63
2022-10-09T04:29:45.403Z,102341.81
2022-10-09T04:32:13.204Z,102336.16
2022-10-09T04:34:41.048Z,102342.19
2022-10-09T04:37:08.916Z,102335.19
2022-10-09T04:39:36.763Z,102345.28
2022-10-09T04:42:04.876Z,102337.41
2022-10-09T04:44:34.202Z,102346.06
2022-10-09T04:47:02.007Z,102340.41
2022-10-09T04:49:29.856Z,102344.81
2022-10-09T04:51:57.763Z,102339.75
2022-10-09T04:54:25.749Z,102345.91
2022-10-09T04:56:53.577Z,102345.69
2022-10-09T04:59:21.390Z,102344.63
2022-10-09T05:01:50.646Z,102348.53
2022-10-09T05:04:18.493Z,102351.16
2022-10-09T05:06:46.310Z,102354.78
2022-10-09T05:09:14.150Z,102350.84
2022-10-09T05:11:42.955Z,102355.25
2022-10-09T05:14:11.542Z,102352.19
2022-10-09T05:17:08.291Z,102355.41
2022-10-09T05:19:28.971Z,102358.88
2022-10-09T05:21:56.797Z,102350.91
2022-10-09T05:24:24.635Z,102365.00
2022-10-09T05:26:52.733Z,102358.94
2022-10-09T05:29:20.659Z,102367.75
2022-10-09T05:31:49.689Z,102371.75
2022-10-09T05:34:17.812Z,102384.72
2022-10-09T05:36:46.998Z,102376.19
2022-10-09T05:39:14.791Z,102377.84
2022-10-09T05:41:42.641Z,102373.88
2022-10-09T05:44:10.614Z,102372.56
2022-10-09T05:46:38.425Z,102377.03
2022-10-09T05:49:07.205Z,102382.63
2022-10-09T05:51:36.964Z,102389.09
2022-10-09T05:54:07.245Z,102396.47
2022-10-09T05:56:37.111Z,102397.06
2022-10-09T05:59:06.067Z,102410.56
2022-10-09T06:01:35.859Z,102405.84
2022-10-09T06:04:04.644Z,102409.16
2022-10-09T06:06:35.006Z,102407.03
2022-10-09T06:09:03.321Z,102411.44
2022-10-09T06:11:34.386Z,102402.72
2022-10-09T06:14:04.844Z,102410.72
2022-10-09T06:16:34.955Z,102410.31
2022-10-09T06:19:03.284Z,102419.13
2022-10-09T06:21:31.189Z,102421.75
2022-10-09T06:24:01.462Z,102426.16
2022-10-09T06:26:30.193Z,102423.16
2022-10-09T06:29:00.893Z,102434.03
2022-10-09T06:31:30.218Z,102432.16
2022-10-09T06:34:00.666Z,102429.38
2022-10-09T06:36:30.201Z,102429.44
2022-10-09T06:39:00.400Z,102437.47
2022-10-09T06:41:29.718Z,102444.00
2022-10-09T06:44:00.459Z,102436.94
2022-10-09T06:46:30.687Z,102438.19
2022-10-09T06:48:59.937Z,102443.63
2022-10-09T06:51:28.986Z,102441.38
2022-10-09T06:53:59.399Z,102437.97
2022-10-09T06:56:29.263Z,102445.84
2022-10-09T06:58:57.411Z,102451.03
2022-10-09T07:01:30.797Z,102449.63
2022-10-09T07:03:59.060Z,102448.50
2022-10-09T07:06:29.446Z,102458.03
2022-10-09T07:08:59.124Z,102456.81
2022-10-09T07:11:28.676Z,102451.94
2022-10-09T07:13:58.376Z,102463.75
2022-10-09T07:16:30.233Z,102455.22
2022-10-09T07:19:00.172Z,102459.91
2022-10-09T07:21:28.457Z,102470.19
2022-10-09T07:23:56.866Z,102459.91
2022-10-09T07:26:26.598Z,102469.53
2022-10-09T07:28:54.930Z,102466.34
2022-10-09T07:31:23.612Z,102467.91
2022-10-09T07:33:54.246Z,102469.28
2022-10-09T07:36:22.363Z,102470.06
2022-10-09T07:38:51.363Z,102470.41
2022-10-09T07:41:19.584Z,102466.09
2022-10-09T07:43:47.411Z,102478.28
2022-10-09T07:46:16.727Z,102477.53
2022-10-09T07:48:44.995Z,102472.94
2022-10-09T07:51:17.056Z,102479.75
2022-10-09T07:53:45.836Z,102472.91
2022-10-09T07:56:18.096Z,102482.19
2022-10-09T07:58:50.756Z,102476.03
2022-10-09T08:01:20.593Z,102473.69
2022-10-09T08:03:49.317Z,102477.06
2022-10-09T08:06:19.719Z,102485.28
2022-10-09T08:08:50.462Z,102477.66
2022-10-09T08:11:19.847Z,102479.56
2022-10-09T08:13:48.788Z,102481.81
2022-10-09T08:16:17.405Z,102479.75
2022-10-09T08:18:45.659Z,102487.31
2022-10-09T08:21:15.260Z,102484.56
2022-10-09T08:23:45.072Z,102489.03
2022-10-09T08:26:17.086Z,102488.94
2022-10-09T08:28:45.037Z,102496.47
2022-10-09T08:31:13.619Z,102499.22
2022-10-09T08:33:41.737Z,102499.66
2022-10-09T08:36:11.838Z,102497.25
2022-10-09T08:38:48.110Z,102503.72
2022-10-09T08:41:35.498Z,102503.97
2022-10-09T08:44:05.942Z,102497.28
2022-10-09T08:46:42.355Z,102502.34
2022-10-09T08:49:23.050Z,102488.69
2022-10-09T08:51:51.834Z,102501.59
2022-10-09T08:54:26.651Z,102499.31
2022-10-09T08:56:55.861Z,102491.28
2022-10-09T08:59:23.616Z,102493.28
2022-10-09T09:02:01.113Z,102492.72
2022-10-09T09:04:45.018Z,102492.63
2022-10-09T09:07:25.161Z,102491.94
2022-10-09T09:09:58.803Z,102495.50
2022-10-09T09:12:34.927Z,102490.06
2022-10-09T09:15:18.974Z,102487.25
2022-10-09T09:17:53.500Z,102482.06
2022-10-09T09:20:26.636Z,102482.50
2022-10-09T09:22:54.597Z,102481.28
2022-10-09T09:25:25.179Z,102476.53
2022-10-09T09:27:58.349Z,102478.69
2022-10-09T09:30:30.158Z,102470.81
2022-10-09T09:33:18.812Z,102480.25
2022-10-09T09:35:54.440Z,102468.09
2022-10-09T09:38:22.293Z,102462.81
2022-10-09T09:40:50.780Z,102465.50
2022-10-09T09:43:23.818Z,102459.34
2022-10-09T09:45:54.512Z,102461.19
2022-10-09T09:48:32.351Z,102456.69
2022-10-09T09:51:23.350Z,102455.44
2022-10-09T09:53:53.021Z,102454.97
2022-10-09T09:56:21.291Z,102458.63
2022-10-09T09:58:53.099Z,102459.75
2022-10-09T10:01:24.379Z,102460.34
2022-10-09T10:03:54.386Z,102461.97
2022-10-09T10:06:24.643Z,102454.28
2022-10-09T10:09:00.496Z,102454.41
2022-10-09T10:11:29.290Z,102453.72
2022-10-09T10:13:59.041Z,102445.53
2022-10-09T10:16:29.051Z,102445.88
2022-10-09T10:18:58.515Z,102440.69
2022-10-09T10:21:26.386Z,102437.00
2022-10-09T10:23:59.568Z,102433.31
2022-10-09T10:26:32.296Z,102418.31
2022-10-09T10:29:09.329Z,102418.03
2022-10-09T10:31:47.327Z,102416.72
2022-10-09T10:34:20.427Z,102431.38
2022-10-09T10:36:51.126Z,102431.47
2022-10-09T10:39:25.727Z,102428.06
2022-10-09T10:41:56.783Z,102424.69
2022-10-09T10:44:34.761Z,102414.03
2022-10-09T10:47:07.024Z,102423.91
2022-10-09T10:49:34.900Z,102404.47
2022-10-09T10:52:17.884Z,102397.47
2022-10-09T10:54:53.388Z,102398.91
2022-10-09T10:57:27.121Z,102388.22
2022-10-09T11:00:05.896Z,102397.19
2022-10-09T11:03:06.439Z,102393.50
2022-10-09T11:05:46.647Z,102379.09
2022-10-09T11:08:41.432Z,102378.81
2022-10-09T11:11:14.953Z,102380.44
2022-10-09T11:13:56.055Z,102384.16
2022-10-09T11:16:40.794Z,102377.03
2022-10-09T11:19:16.871Z,102381.25
2022-10-09T11:22:00.452Z,102375.81
2022-10-09T11:24:40.925Z,102374.88
2022-10-09T11:27:14.825Z,102373.59
2022-10-09T11:29:47.491Z,102372.28
2022-10-09T11:32:20.819Z,102359.13
2022-10-09T11:34:54.972Z,102362.47
2022-10-09T11:37:28.196Z,102360.66
2022-10-09T11:39:56.906Z,102361.06
2022-10-09T11:42:27.037Z,102359.34
2022-10-09T11:45:07.463Z,102359.72
2022-10-09T11:47:44.809Z,102345.75
2022-10-09T11:50:32.045Z,102351.28
2022-10-09T11:53:04.939Z,102337.63
2022-10-09T11:55:34.644Z,102337.22
2022-10-09T11:58:14.861Z,102336.88
2022-10-09T12:00:43.743Z,102340.66
2022-10-09T12:03:30.227Z,102341.34
2022-10-09T12:06:10.598Z,102335.91
2022-10-09T12:08:40.580Z,102333.22
2022-10-09T12:11:15.174Z,102332.66
2022-10-09T12:13:50.467Z,102333.69
2022-10-09T12:16:34.334Z,102330.75
2022-10-09T12:19:06.261Z,102327.44
2022-10-09T12:21:41.052Z,102325.91
2022-10-09T12:24:16.899Z,102320.84
2022-10-09T12:26:45.853Z,102319.28
2022-10-09T12:29:21.376Z,102309.66
2022-10-09T12:31:53.508Z,102310.00
2022-10-09T12:34:26.842Z,102318.19
2022-10-09T12:37:04.138Z,102300.59
2022-10-09T12:39:33.754Z,102298.44
2022-10-09T12:42:01.794Z,102305.38
2022-10-09T12:44:33.666Z,102295.25
2022-10-09T12:47:03.870Z,102291.50
2022-10-09T12:49:33.490Z,102284.69
2022-10-09T12:52:02.425Z,102296.84
2022-10-09T12:54:32.102Z,102285.25
2022-10-09T12:57:01.885Z,102286.59
2022-10-09T12:59:30.361Z,102288.25
2022-10-09T13:02:00.945Z,102289.50
2022-10-09T13:04:31.439Z,102277.75
2022-10-09T13:07:03.237Z,102280.97
2022-10-09T13:09:37.004Z,102289.25
2022-10-09T13:12:08.772Z,102281.81
2022-10-09T13:14:43.552Z,102275.28
2022-10-09T13:17:24.869Z,102274.19
2022-10-09T13:19:54.837Z,102270.03
2022-10-09T13:22:25.442Z,102264.69
2022-10-09T13:24:54.667Z,102267.44
2022-10-09T13:27:25.532Z,102259.13
2022-10-09T13:29:53.535Z,102258.13
2022-10-09T13:32:22.789Z,102260.59
2022-10-09T13:34:51.264Z,102261.31
2022-10-09T13:37:20.289Z,102268.28
2022-10-09T13:39:51.163Z,102255.53
2022-10-09T13:42:19.335Z,102258.72
2022-10-09T13:44:47.203Z,102253.50
2022-10-09T13:47:16.953Z,102257.53
2022-10-09T13:49:46.397Z,102247.16
2022-10-09T13:52:14.275Z,102255.50
2022-10-09T13:54:43.005Z,102252.50
2022-10-09T13:57:12.215Z,102257.16
2022-10-09T13:59:40.192Z,102251.16
2022-10-09T14:02:08.611Z,102252.81
2022-10-09T14:04:36.407Z,102248.41
2022-10-09T14:07:04.232Z,102235.00
2022-10-09T14:09:32.268Z,102243.06
2022-10-09T14:12:00.096Z,102234.41
2022-10-09T14:14:29.311Z,102233.56
2022-10-09T14:16:57.185Z,102228.47
2022-10-09T14:19:27.659Z,102219.63
2022-10-09T14:21:55.562Z,102214.81
2022-10-09T14:24:23.704Z,102219.09
2022-10-09T14:26:51.939Z,102218.97
2022-10-09T14:29:19.851Z,102218.69
2022-10-09T14:31:50.562Z,102216.84
2022-10-09T14:34:18.456Z,102207.34
2022-10-09T14:36:46.627Z,102212.75
2022-10-09T14:39:14.611Z,102209.75
2022-10-09T14:41:42.437Z,102202.50
2022-10-09T14:44:11.075Z,102201.78
2022-10-09T14:46:39.405Z,102204.88
2022-10-09T14:49:09.707Z,102209.91
2022-10-09T14:51:39.622Z,102207.28
2022-10-09T14:54:09.565Z,102196.78
2022-10-09T14:56:37.789Z,102196.59
2022-10-09T14:59:06.849Z,102193.94
2022-10-09T15:01:35.986Z,102193.59
2022-10-09T15:04:05.462Z,102192.66
2022-10-09T15:06:35.128Z,102191.59
2022-10-09T15:09:05.473Z,102197.41
2022-10-09T15:11:34.629Z,102193.19
2022-10-09T15:14:03.196Z,102201.75
2022-10-09T15:16:31.161Z,102190.38
2022-10-09T15:18:59.090Z,102190.69
2022-10-09T15:21:29.769Z,102191.63
2022-10-09T15:24:01.179Z,102187.28
2022-10-09T15:26:32.764Z,102189.66
2022-10-09T15:29:02.207Z,102183.00
2022-10-09T15:31:32.318Z,102182.88
2022-10-09T15:34:02.153Z,102188.22
2022-10-09T15:36:31.146Z,102184.56
2022-10-09T15:39:02.937Z,102176.56
2022-10-09T15:41:32.879Z,102169.88
2022-10-09T15:44:02.008Z,102182.03
2022-10-09T15:46:30.558Z,102171.31
2022-10-09T15:48:58.600Z,102169.94
2022-10-09T15:51:26.618Z,102173.38
2022-10-09T15:53:56.124Z,102178.63
2022-10-09T15:56:25.838Z,102181.00
2022-10-09T15:58:55.828Z,102177.91
2022-10-09T16:01:24.189Z,102171.66
2022-10-09T16:03:52.298Z,102177.94
2022-10-09T16:06:22.316Z,102184.09
2022-10-09T16:08:50.617Z,102172.19
2022-10-09T16:11:21.909Z,102178.16
2022-10-09T16:13:54.489Z,102175.00
2022-10-09T16:16:24.258Z,102182.13
2022-10-09T16:18:52.911Z,102178.06
2022-10-09T16:21:22.743Z,102172.19
2022-10-09T16:23:54.475Z,102172.31
2022-10-09T16:26:25.464Z,102175.25
2022-10-09T16:28:54.848Z,102171.91
2022-10-09T16:31:24.738Z,102175.59
2022-10-09T16:33:53.113Z,102174.50
2022-10-09T16:36:21.175Z,102173.50
2022-10-09T16:38:49.328Z,102175.97
2022-10-09T16:41:20.548Z,102174.09
2022-10-09T16:43:50.408Z,102175.66
2022-10-09T16:46:22.290Z,102172.34
2022-10-09T16:48:51.705Z,102173.91
2022-10-09T16:51:21.475Z,102175.78
2022-10-09T16:53:50.588Z,102175.13
2022-10-09T16:56:20.935Z,102174.44
2022-10-09T16:58:49.423Z,102170.91
2022-10-09T17:01:17.421Z,102171.09
2022-10-09T17:03:46.680Z,102173.25
2022-10-09T17:06:19.415Z,102176.81
2022-10-09T17:08:47.748Z,102176.81
2022-10-09T17:11:16.841Z,102174.72
2022-10-09T17:13:45.565Z,102172.50
2022-10-09T17:16:18.248Z,102174.44
2022-10-09T17:18:48.228Z,102171.75
2022-10-09T17:21:17.755Z,102165.88
2022-10-09T17:23:46.507Z,102155.34
2022-10-09T17:26:16.679Z,102171.47
2022-10-09T17:28:45.004Z,102175.19
2022-10-09T17:31:15.680Z,102158.72
2022-10-09T17:33:46.028Z,102166.53
2022-10-09T17:36:18.064Z,102168.72
2022-10-09T17:38:46.610Z,102173.91
2022-10-09T17:41:16.171Z,102167.22
2022-10-09T17:43:44.505Z,102171.34
2022-10-09T17:46:14.178Z,102159.28
2022-10-09T17:48:44.965Z,102158.25
2022-10-09T17:51:17.966Z,102160.84
2022-10-09T17:53:47.597Z,102162.22
2022-10-09T17:56:15.655Z,102156.59
2022-10-09T17:58:44.527Z,102152.66
2022-10-09T18:01:14.285Z,102161.91
2022-10-09T18:03:42.578Z,102157.22
2022-10-09T18:06:12.756Z,102156.34
2022-10-09T18:08:42.265Z,102152.69
2022-10-09T18:11:12.348Z,102149.56
2022-10-09T18:13:41.419Z,102150.00
2022-10-09T18:16:11.496Z,102149.44
2022-10-09T18:18:39.644Z,102144.44
2022-10-09T18:21:10.395Z,102144.31
2022-10-09T18:23:38.931Z,102146.25
2022-10-09T18:26:12.388Z,102149.59
2022-10-09T18:28:41.798Z,102148.63
2022-10-09T18:31:13.272Z,102139.38
2022-10-09T18:33:41.306Z,102144.97
2022-10-09T18:36:11.804Z,102138.00
2022-10-09T18:38:39.650Z,102141.66
2022-10-09T18:41:09.319Z,102139.50
2022-10-09T18:43:38.590Z,102139.09
2022-10-09T18:46:06.460Z,102140.25
2022-10-09T18:48:38.616Z,102135.53
2022-10-09T18:51:09.735Z,102123.16
2022-10-09T18:53:39.329Z,102132.84
2022-10-09T18:56:08.137Z,102130.34
2022-10-09T18:58:38.713Z,102123.25
2022-10-09T19:01:07.810Z,102132.53
2022-10-09T19:03:36.565Z,102121.31
2022-10-09T19:06:05.105Z,102127.56
2022-10-09T19:08:33.087Z,102115.53
2022-10-09T19:11:00.940Z,102125.63
2022-10-09T19:13:28.960Z,102118.72
2022-10-09T19:15:59.385Z,102113.47
2022-10-09T19:18:28.101Z,102120.88
2022-10-09T19:20:55.918Z,102105.81
2022-10-09T19:23:23.744Z,102112.28
2022-10-09T19:25:53.220Z,102102.91
2022-10-09T19:28:22.246Z,102114.53
2022-10-09T19:30:50.561Z,102103.69
2022-10-09T19:33:19.983Z,102112.25
2022-10-09T19:35:49.001Z,102102.16
2022-10-09T19:38:17.621Z,102098.59
2022-10-09T19:40:45.911Z,102104.47
2022-10-09T19:43:15.037Z,102107.47
2022-10-09T19:45:43.585Z,102108.78
2022-10-09T19:48:12.759Z,102096.25
2022-10-09T19:50:46.494Z,102092.00
2022-10-09T19:53:15.407Z,102098.81
2022-10-09T19:55:43.313Z,102090.53
2022-10-09T19:58:11.189Z,102095.66
2022-10-09T20:00:43.031Z,102088.53
2022-10-09T20:03:11.010Z,102082.63
2022-10-09T20:05:38.996Z,102086.81
2022-10-09T20:08:08.987Z,102084.88
2022-10-09T20:10:37.486Z,102082.63
2022-10-09T20:13:06.137Z,102078.94
2022-10-09T20:15:34.085Z,102079.06
2022-10-09T20:18:01.879Z,102081.50
2022-10-09T20:20:29.750Z,102082.31
2022-10-09T20:22:57.523Z,102081.59
2022-10-09T20:25:26.916Z,102077.81
2022-10-09T20:27:54.737Z,102079.88
2022-10-09T20:30:22.582Z,102076.22
2022-10-09T20:32:54.143Z,102082.19
2022-10-09T20:35:24.606Z,102076.56
2022-10-09T20:37:52.400Z,102074.66
2022-10-09T20:40:20.522Z,102077.78
2022-10-09T20:42:50.003Z,102079.56
2022-10-09T20:45:18.069Z,102073.13
2022-10-09T20:47:45.864Z,102072.72
2022-10-09T20:50:13.732Z,102069.69
2022-10-09T20:52:41.566Z,102069.41
2022-10-09T20:55:09.561Z,102061.75
2022-10-09T20:57:37.413Z,102066.34
2022-10-09T21:00:07.680Z,102077.19
2022-10-09T21:02:38.400Z,102069.06
2022-10-09T21:05:08.223Z,102067.66
2022-10-09T21:07:36.081Z,102063.78
2022-10-09T21:10:05.143Z,102058.28
2022-10-09T21:12:33.099Z,102050.94
2022-10-09T21:15:00.998Z,102056.09
2022-10-09T21:17:30.189Z,102056.50
2022-10-09T21:19:58.057Z,102051.44
2022-10-09T21:22:26.425Z,102051.41
2022-10-09T21:24:54.227Z,102046.72
2022-10-09T21:27:22.039Z,102040.34
2022-10-09T21:29:49.927Z,102049.97
2022-10-09T21:32:17.724Z,102035.41
2022-10-09T21:34:47.127Z,102042.25
2022-10-09T21:37:21.508Z,102037.91
2022-10-09T21:39:50.199Z,102035.66
2022-10-09T21:42:18.054Z,102028.88
2022-10-09T21:44:45.886Z,102035.00
2022-10-09T21:47:17.823Z,102028.81
2022-10-09T21:49:47.130Z,102031.66
2022-10-09T21:52:15.136Z,102031.88
2022-10-09T21:54:43.045Z,102038.00
2022-10-09T21:57:10.863Z,102035.03
2022-10-09T21:59:38.732Z,102033.31
2022-10-09T22:02:06.742Z,102034.28
2022-10-09T22:04:34.949Z,102030.44
2022-10-09T22:07:04.110Z,102031.78
2022-10-09T22:09:31.989Z,102027.81
2022-10-09T22:12:00.315Z,102029.78
2022-10-09T22:14:28.192Z,102027.84
2022-10-09T22:16:56.037Z,102024.69
2022-10-09T22:19:23.932Z,102019.72
2022-10-09T22:21:51.735Z,102019.72
2022-10-09T22:24:20.903Z,102023.56
2022-10-09T22:26:48.741Z,102014.72
2022-10-09T22:29:16.726Z,102010.06
2022-10-09T22:31:44.525Z,102008.22
2022-10-09T22:34:12.335Z,101998.94
2022-10-09T22:36:40.157Z,101991.66
2022-10-09T22:39:08.267Z,102000.00
2022-10-09T22:41:37.619Z,101994.16
2022-10-09T22:44:07.856Z,101994.84
2022-10-09T22:46:38.128Z,101991.69
2022-10-09T22:49:06.961Z,101992.75
2022-10-09T22:51:34.984Z,101987.84
2022-10-09T22:54:03.487Z,101983.06
2022-10-09T22:56:33.673Z,101986.44
2022-10-09T22:59:03.117Z,101984.78
2022-10-09T23:01:33.809Z,101982.78
2022-10-09T23:04:03.333Z,101976.66
2022-10-09T23:06:31.592Z,101982.22
2022-10-09T23:09:00.197Z,101979.44
2022-10-09T23:11:28.565Z,101969.66
2022-10-09T23:13:58.436Z,101965.84
2022-10-09T23:16:29.832Z,101969.19
2022-10-09T23:18:59.583Z,101962.69
2022-10-09T23:21:29.824Z,101962.03
2022-10-09T23:23:58.747Z,101965.56
2022-10-09T23:26:28.572Z,101950.06
2022-10-09T23:28:57.919Z,101957.72
2022-10-09T23:31:27.774Z,101954.44
2022-10-09T23:33:56.126Z,101960.00
2022-10-09T23:36:26.082Z,101961.03
2022-10-09T23:38:54.671Z,101961.75
2022-10-09T23:41:24.350Z,101959.34
2022-10-09T23:43:52.732Z,101958.47
2022-10-09T23:46:23.370Z,101957.63
2022-10-09T23:48:53.500Z,101953.31
2022-10-09T23:51:22.447Z,101953.91
2022-10-09T23:53:50.389Z,101956.38
2022-10-09T23:56:20.344Z,101951.56
2022-10-09T23:58:48.591Z,101940.50
